sensor_id;sensor_type;location;lat;lon;timestamp;pressure;altitude;pressure_sealevel;temperature;humidity
69630;BME280;56857;52.212;5.496;2023-03-04T00:00:19;102737.75;;;5.72;100.00
69630;BME280;56857;52.212;5.496;2023-03-04T00:02:44;102731.66;;;5.71;100.00
69630;BME280;56857;52.212;5.496;2023-03-04T00:05:09;102732.75;;;5.67;100.00
69630;BME280;56857;52.212;5.496;2023-03-04T00:07:35;102737.28;;;5.65;100.00
69630;BME280;56857;52.212;5.496;2023-03-04T00:10:00;102736.63;;;5.62;100.00
69630;BME280;56857;52.212;5.496;2023-03-04T00:12:26;102726.28;;;5.58;100.00
69630;BME280;56857;52.212;5.496;2023-03-04T00:14:52;102728.97;;;5.57;100.00
69630;BME280;56857;52.212;5.496;2023-03-04T00:17:19;102736.69;;;5.60;100.00
69630;BME280;56857;52.212;5.496;2023-03-04T00:19:44;102731.25;;;5.63;100.00
69630;BME280;56857;52.212;5.496;2023-03-04T00:22:09;102726.84;;;5.64;100.00
69630;BME280;56857;52.212;5.496;2023-03-04T00:24:36;102733.88;;;5.63;100.00
69630;BME280;56857;52.212;5.496;2023-03-04T00:27:01;102729.66;;;5.61;100.00
69630;BME280;56857;52.212;5.496;2023-03-04T00:29:26;102732.56;;;5.56;100.00
69630;BME280;56857;52.212;5.496;2023-03-04T00:31:52;102727.31;;;5.56;100.00
69630;BME280;56857;52.212;5.496;2023-03-04T00:34:18;102732.56;;;5.56;100.00
69630;BME280;56857;52.212;5.496;2023-03-04T00:36:43;102737.81;;;5.56;100.00
69630;BME280;56857;52.212;5.496;2023-03-04T00:39:10;102727.38;;;5.54;100.00
69630;BME280;56857;52.212;5.496;2023-03-04T00:41:37;102737.81;;;5.56;100.00
69630;BME280;56857;52.212;5.496;2023-03-04T00:44:03;102724.66;;;5.56;100.00
69630;BME280;56857;52.212;5.496;2023-03-04T00:46:29;102731.63;;;5.57;100.00
69630;BME280;56857;52.212;5.496;2023-03-04T00:48:54;102730.69;;;5.58;100.00
69630;BME280;56857;52.212;5.496;2023-03-04T00:51:19;102728.13;;;5.56;100.00
69630;BME280;56857;52.212;5.496;2023-03-04T00:53:45;102722.81;;;5.58;100.00
69630;BME280;56857;52.212;5.496;2023-03-04T00:56:10;102731.53;;;5.58;100.00
69630;BME280;56857;52.212;5.496;2023-03-04T00:58:37;102735.75;;;5.61;100.00
69630;BME280;56857;52.212;5.496;2023-03-04T01:01:02;102735.66;;;5.63;100.00
69630;BME280;56857;52.212;5.496;2023-03-04T01:03:29;102733.13;;;5.61;100.00
69630;BME280;56857;52.212;5.496;2023-03-04T01:05:54;102734.16;;;5.58;100.00
69630;BME280;56857;52.212;5.496;2023-03-04T01:08:19;102740.16;;;5.61;100.00
69630;BME280;56857;52.212;5.496;2023-03-04T01:10:45;102740.16;;;5.61;100.00
69630;BME280;56857;52.212;5.496;2023-03-04T01:13:11;102738.47;;;5.60;100.00
69630;BME280;56857;52.212;5.496;2023-03-04T01:15:36;102738.47;;;5.60;100.00
69630;BME280;56857;52.212;5.496;2023-03-04T01:18:02;102731.72;;;5.55;100.00
69630;BME280;56857;52.212;5.496;2023-03-04T01:20:27;102728.44;;;5.52;100.00
69630;BME280;56857;52.212;5.496;2023-03-04T01:22:53;102720.59;;;5.50;100.00
69630;BME280;56857;52.212;5.496;2023-03-04T01:25:19;102728.50;;;5.50;100.00
69630;BME280;56857;52.212;5.496;2023-03-04T01:27:46;102717.97;;;5.50;100.00
69630;BME280;56857;52.212;5.496;2023-03-04T01:30:11;102716.13;;;5.52;100.00
69630;BME280;56857;52.212;5.496;2023-03-04T01:32:39;102715.09;;;5.55;100.00
69630;BME280;56857;52.212;5.496;2023-03-04T01:35:05;102711.50;;;5.56;100.00
69630;BME280;56857;52.212;5.496;2023-03-04T01:37:30;102707.03;;;5.58;100.00
69630;BME280;56857;52.212;5.496;2023-03-04T01:39:58;102711.22;;;5.61;100.00
69630;BME280;56857;52.212;5.496;2023-03-04T01:42:26;102711.16;;;5.62;100.00
69630;BME280;56857;52.212;5.496;2023-03-04T01:44:55;102712.19;;;5.60;100.00
69630;BME280;56857;52.212;5.496;2023-03-04T01:47:22;102704.38;;;5.58;100.00
69630;BME280;56857;52.212;5.496;2023-03-04T01:49:55;102699.13;;;5.58;100.00
69630;BME280;56857;52.212;5.496;2023-03-04T01:52:21;102699.88;;;5.60;100.00
69630;BME280;56857;52.212;5.496;2023-03-04T01:54:47;102698.91;;;5.61;100.00
69630;BME280;56857;52.212;5.496;2023-03-04T01:57:21;102694.59;;;5.60;100.00
69630;BME280;56857;52.212;5.496;2023-03-04T02:00:18;102698.91;;;5.61;100.00
69630;BME280;56857;52.212;5.496;2023-03-04T02:02:44;102693.56;;;5.63;100.00
69630;BME280;56857;52.212;5.496;2023-03-04T02:05:10;102688.97;;;5.66;100.00
69630;BME280;56857;52.212;5.496;2023-03-04T02:07:35;102682.75;;;5.67;100.00
69630;BME280;56857;52.212;5.496;2023-03-04T02:10:02;102674.88;;;5.67;100.00
69630;BME280;56857;52.212;5.496;2023-03-04T02:12:28;102675.81;;;5.66;100.00
69630;BME280;56857;52.212;5.496;2023-03-04T02:14:53;102667.94;;;5.66;100.00
69630;BME280;56857;52.212;5.496;2023-03-04T02:17:27;102674.03;;;5.67;100.00
69630;BME280;56857;52.212;5.496;2023-03-04T02:20:19;102669.59;;;5.67;100.00
69630;BME280;56857;52.212;5.496;2023-03-04T02:22:58;102666.13;;;5.67;100.00
69630;BME280;56857;52.212;5.496;2023-03-04T02:25:30;102669.72;;;5.66;100.00
69630;BME280;56857;52.212;5.496;2023-03-04T02:27:58;102669.72;;;5.66;100.00
69630;BME280;56857;52.212;5.496;2023-03-04T02:30:23;102668.09;;;5.63;100.00
69630;BME280;56857;52.212;5.496;2023-03-04T02:32:51;102661.16;;;5.62;100.00
69630;BME280;56857;52.212;5.496;2023-03-04T02:35:17;102656.81;;;5.61;100.00
69630;BME280;56857;52.212;5.496;2023-03-04T02:37:44;102651.97;;;5.55;100.00
69630;BME280;56857;52.212;5.496;2023-03-04T02:40:22;102652.97;;;5.52;100.00
69630;BME280;56857;52.212;5.496;2023-03-04T02:42:49;102656.53;;;5.51;100.00
69630;BME280;56857;52.212;5.496;2023-03-04T02:45:43;102647.91;;;5.49;100.00
69630;BME280;56857;52.212;5.496;2023-03-04T02:48:16;102649.78;;;5.47;100.00
69630;BME280;56857;52.212;5.496;2023-03-04T02:50:45;102647.31;;;5.44;100.00
69630;BME280;56857;52.212;5.496;2023-03-04T02:53:11;102641.13;;;5.45;100.00
69630;BME280;56857;52.212;5.496;2023-03-04T02:55:37;102643.84;;;5.44;100.00
69630;BME280;56857;52.212;5.496;2023-03-04T02:58:03;102645.63;;;5.43;100.00
69630;BME280;56857;52.212;5.496;2023-03-04T03:00:29;102630.69;;;5.44;100.00
69630;BME280;56857;52.212;5.496;2023-03-04T03:02:55;102634.28;;;5.43;100.00
69630;BME280;56857;52.212;5.496;2023-03-04T03:05:20;102635.19;;;5.42;100.00
69630;BME280;56857;52.212;5.496;2023-03-04T03:07:47;102631.72;;;5.41;100.00
69630;BME280;56857;52.212;5.496;2023-03-04T03:10:12;102626.47;;;5.41;100.00
69630;BME280;56857;52.212;5.496;2023-03-04T03:12:37;102627.41;;;5.40;100.00
69630;BME280;56857;52.212;5.496;2023-03-04T03:15:03;102629.84;;;5.43;100.00
69630;BME280;56857;52.212;5.496;2023-03-04T03:17:29;102619.16;;;5.46;100.00
69630;BME280;56857;52.212;5.496;2023-03-04T03:19:54;102614.81;;;5.45;100.00
69630;BME280;56857;52.212;5.496;2023-03-04T03:22:19;102617.25;;;5.48;100.00
69630;BME280;56857;52.212;5.496;2023-03-04T03:24:45;102612.00;;;5.48;100.00
69630;BME280;56857;52.212;5.496;2023-03-04T03:27:10;102614.72;;;5.47;100.00
69630;BME280;56857;52.212;5.496;2023-03-04T03:29:37;102616.72;;;5.43;100.00
69630;BME280;56857;52.212;5.496;2023-03-04T03:32:03;102607.03;;;5.44;100.00
69630;BME280;56857;52.212;5.496;2023-03-04T03:34:28;102604.59;;;5.41;100.00
69630;BME280;56857;52.212;5.496;2023-03-04T03:37:00;102598.38;;;5.42;100.00
69630;BME280;56857;52.212;5.496;2023-03-04T03:39:33;102609.84;;;5.41;100.00
69630;BME280;56857;52.212;5.496;2023-03-04T03:41:58;102608.81;;;5.43;100.00
69630;BME280;56857;52.212;5.496;2023-03-04T03:44:23;102611.44;;;5.43;100.00
69630;BME280;56857;52.212;5.496;2023-03-04T03:46:48;102620.06;;;5.45;100.00
69630;BME280;56857;52.212;5.496;2023-03-04T03:49:14;102608.72;;;5.45;100.00
69630;BME280;56857;52.212;5.496;2023-03-04T03:51:39;102617.53;;;5.44;100.00
69630;BME280;56857;52.212;5.496;2023-03-04T03:54:04;102611.53;;;5.42;100.00
69630;BME280;56857;52.212;5.496;2023-03-04T03:56:30;102614.16;;;5.42;100.00
69630;BME280;56857;52.212;5.496;2023-03-04T03:58:55;102605.44;;;5.41;100.00
69630;BME280;56857;52.212;5.496;2023-03-04T04:01:20;102611.81;;;5.37;100.00
69630;BME280;56857;52.212;5.496;2023-03-04T04:03:46;102614.53;;;5.35;100.00
69630;BME280;56857;52.212;5.496;2023-03-04T04:06:11;102609.25;;;5.35;100.00
69630;BME280;56857;52.212;5.496;2023-03-04T04:08:38;102610.22;;;5.34;100.00
69630;BME280;56857;52.212;5.496;2023-03-04T04:11:03;102616.41;;;5.33;100.00
69630;BME280;56857;52.212;5.496;2023-03-04T04:13:30;102611.88;;;5.35;100.00
69630;BME280;56857;52.212;5.496;2023-03-04T04:15:55;102605.53;;;5.40;100.00
69630;BME280;56857;52.212;5.496;2023-03-04T04:18:21;102613.41;;;5.40;100.00
69630;BME280;56857;52.212;5.496;2023-03-04T04:20:47;102613.41;;;5.40;100.00
69630;BME280;56857;52.212;5.496;2023-03-04T04:23:12;102619.41;;;5.42;100.00
69630;BME280;56857;52.212;5.496;2023-03-04T04:25:44;102622.16;;;5.40;100.00
69630;BME280;56857;52.212;5.496;2023-03-04T04:28:10;102616.06;;;5.40;100.00
69630;BME280;56857;52.212;5.496;2023-03-04T04:30:36;102620.34;;;5.41;100.00
69630;BME280;56857;52.212;5.496;2023-03-04T04:33:02;102619.53;;;5.40;100.00
69630;BME280;56857;52.212;5.496;2023-03-04T04:35:27;102623.84;;;5.41;100.00
69630;BME280;56857;52.212;5.496;2023-03-04T04:37:53;102617.84;;;5.39;100.00
69630;BME280;56857;52.212;5.496;2023-03-04T04:40:18;102616.06;;;5.40;100.00
69630;BME280;56857;52.212;5.496;2023-03-04T04:42:46;102619.59;;;5.39;100.00
69630;BME280;56857;52.212;5.496;2023-03-04T04:45:11;102613.50;;;5.38;100.00
69630;BME280;56857;52.212;5.496;2023-03-04T04:47:37;102613.25;;;5.43;100.00
69630;BME280;56857;52.212;5.496;2023-03-04T04:50:09;102621.84;;;5.45;100.00
69630;BME280;56857;52.212;5.496;2023-03-04T04:52:35;102612.94;;;5.47;100.00
69630;BME280;56857;52.212;5.496;2023-03-04T04:55:00;102615.50;;;5.49;100.00
69630;BME280;56857;52.212;5.496;2023-03-04T04:57:26;102621.50;;;5.51;100.00
69630;BME280;56857;52.212;5.496;2023-03-04T04:59:51;102616.34;;;5.49;100.00
69630;BME280;56857;52.212;5.496;2023-03-04T05:02:16;102616.34;;;5.49;100.00
69630;BME280;56857;52.212;5.496;2023-03-04T05:04:42;102617.06;;;5.51;100.00
69630;BME280;56857;52.212;5.496;2023-03-04T05:07:07;102624.88;;;5.53;100.00
69630;BME280;56857;52.212;5.496;2023-03-04T05:09:33;102617.00;;;5.53;100.00
69630;BME280;56857;52.212;5.496;2023-03-04T05:11:58;102613.22;;;5.57;100.00
69630;BME280;56857;52.212;5.496;2023-03-04T05:14:23;102611.25;;;5.61;100.00
69630;BME280;56857;52.212;5.496;2023-03-04T05:16:49;102610.53;;;5.58;100.00
69630;BME280;56857;52.212;5.496;2023-03-04T05:19:15;102610.34;;;5.62;100.00
69630;BME280;56857;52.212;5.496;2023-03-04T05:21:41;102605.72;;;5.65;100.00
69630;BME280;56857;52.212;5.496;2023-03-04T05:24:06;102612.59;;;5.68;100.00
69630;BME280;56857;52.212;5.496;2023-03-04T05:26:32;102617.84;;;5.68;100.00
69630;BME280;56857;52.212;5.496;2023-03-04T05:28:58;102608.00;;;5.71;100.00
69630;BME280;56857;52.212;5.496;2023-03-04T05:31:25;102616.72;;;5.72;100.00
69630;BME280;56857;52.212;5.496;2023-03-04T05:33:50;102614.94;;;5.72;100.00
69630;BME280;56857;52.212;5.496;2023-03-04T05:36:16;102615.13;;;5.69;100.00
69630;BME280;56857;52.212;5.496;2023-03-04T05:38:41;102614.28;;;5.69;100.00
69630;BME280;56857;52.212;5.496;2023-03-04T05:41:07;102617.00;;;5.67;100.00
69630;BME280;56857;52.212;5.496;2023-03-04T05:43:33;102616.44;;;5.62;100.00
69630;BME280;56857;52.212;5.496;2023-03-04T05:45:59;102617.94;;;5.66;100.00
69630;BME280;56857;52.212;5.496;2023-03-04T05:48:26;102615.31;;;5.66;100.00
69630;BME280;56857;52.212;5.496;2023-03-04T05:50:57;102615.22;;;5.68;100.00
69630;BME280;56857;52.212;5.496;2023-03-04T05:53:23;102612.66;;;5.66;100.00
69630;BME280;56857;52.212;5.496;2023-03-04T05:55:49;102617.00;;;5.67;100.00
69630;BME280;56857;52.212;5.496;2023-03-04T05:58:17;102607.41;;;5.66;100.00
69630;BME280;56857;52.212;5.496;2023-03-04T06:00:43;102616.78;;;5.70;100.00
69630;BME280;56857;52.212;5.496;2023-03-04T06:03:16;102623.84;;;5.70;100.00
69630;BME280;56857;52.212;5.496;2023-03-04T06:05:43;102621.97;;;5.72;100.00
69630;BME280;56857;52.212;5.496;2023-03-04T06:08:09;102612.50;;;5.69;100.00
69630;BME280;56857;52.212;5.496;2023-03-04T06:10:35;102619.53;;;5.69;100.00
69630;BME280;56857;52.212;5.496;2023-03-04T06:13:00;102610.50;;;5.73;100.00
69630;BME280;56857;52.212;5.496;2023-03-04T06:15:25;102621.88;;;5.73;100.00
69630;BME280;56857;52.212;5.496;2023-03-04T06:17:51;102613.91;;;5.75;100.00
69630;BME280;56857;52.212;5.496;2023-03-04T06:20:16;102620.84;;;5.76;100.00
69630;BME280;56857;52.212;5.496;2023-03-04T06:22:41;102623.41;;;5.77;100.00
69630;BME280;56857;52.212;5.496;2023-03-04T06:25:07;102620.59;;;5.80;100.00
69630;BME280;56857;52.212;5.496;2023-03-04T06:27:33;102615.22;;;5.82;100.00
69630;BME280;56857;52.212;5.496;2023-03-04T06:29:58;102614.38;;;5.81;100.00
69630;BME280;56857;52.212;5.496;2023-03-04T06:32:24;102620.28;;;5.85;100.00
69630;BME280;56857;52.212;5.496;2023-03-04T06:34:52;102624.72;;;5.85;100.00
69630;BME280;56857;52.212;5.496;2023-03-04T06:37:17;102622.16;;;5.83;100.00
69630;BME280;56857;52.212;5.496;2023-03-04T06:39:44;102628.38;;;5.82;100.00
69630;BME280;56857;52.212;5.496;2023-03-04T06:42:09;102637.09;;;5.82;100.00
69630;BME280;56857;52.212;5.496;2023-03-04T06:44:37;102641.91;;;5.76;100.00
69630;BME280;56857;52.212;5.496;2023-03-04T06:47:02;102632.59;;;5.70;100.00
69630;BME280;56857;52.212;5.496;2023-03-04T06:49:28;102633.34;;;5.72;100.00
69630;BME280;56857;52.212;5.496;2023-03-04T06:51:54;102634.19;;;5.73;100.00
69630;BME280;56857;52.212;5.496;2023-03-04T06:54:20;102640.09;;;5.76;100.00
69630;BME280;56857;52.212;5.496;2023-03-04T06:56:46;102643.41;;;5.80;100.00
69630;BME280;56857;52.212;5.496;2023-03-04T06:59:11;102638.25;;;5.78;100.00
69630;BME280;56857;52.212;5.496;2023-03-04T07:01:36;102640.09;;;5.76;100.00
69630;BME280;56857;52.212;5.496;2023-03-04T07:04:03;102639.91;;;5.79;100.00
69630;BME280;56857;52.212;5.496;2023-03-04T07:06:28;102640.88;;;5.78;100.00
69630;BME280;56857;52.212;5.496;2023-03-04T07:08:55;102642.66;;;5.78;100.00
69630;BME280;56857;52.212;5.496;2023-03-04T07:11:21;102632.78;;;5.81;100.00
69630;BME280;56857;52.212;5.496;2023-03-04T07:13:51;102634.75;;;5.78;100.00
69630;BME280;56857;52.212;5.496;2023-03-04T07:16:20;102636.75;;;5.74;100.00
69630;BME280;56857;52.212;5.496;2023-03-04T07:18:46;102644.81;;;5.71;100.00
69630;BME280;56857;52.212;5.496;2023-03-04T07:21:12;102646.69;;;5.69;100.00
69630;BME280;56857;52.212;5.496;2023-03-04T07:23:38;102643.97;;;5.71;100.00
69630;BME280;56857;52.212;5.496;2023-03-04T07:26:04;102647.47;;;5.71;100.00
69630;BME280;56857;52.212;5.496;2023-03-04T07:28:30;102649.13;;;5.72;100.00
69630;BME280;56857;52.212;5.496;2023-03-04T07:30:55;102642.56;;;5.79;100.00
69630;BME280;56857;52.212;5.496;2023-03-04T07:33:20;102647.44;;;5.86;100.00
69630;BME280;56857;52.212;5.496;2023-03-04T07:35:46;102653.47;;;5.88;100.00
69630;BME280;56857;52.212;5.496;2023-03-04T07:38:11;102655.06;;;5.90;100.00
69630;BME280;56857;52.212;5.496;2023-03-04T07:40:37;102657.44;;;5.95;100.00
69630;BME280;56857;52.212;5.496;2023-03-04T07:43:04;102643.06;;;6.00;100.00
69630;BME280;56857;52.212;5.496;2023-03-04T07:45:29;102643.91;;;6.01;100.00
69630;BME280;56857;52.212;5.496;2023-03-04T07:47:57;102645.50;;;6.03;100.00
69630;BME280;56857;52.212;5.496;2023-03-04T07:50:22;102640.88;;;6.07;100.00
69630;BME280;56857;52.212;5.496;2023-03-04T07:52:51;102639.09;;;6.08;100.00
69630;BME280;56857;52.212;5.496;2023-03-04T07:55:17;102653.84;;;6.10;100.00
69630;BME280;56857;52.212;5.496;2023-03-04T07:57:45;102652.72;;;6.14;100.00
69630;BME280;56857;52.212;5.496;2023-03-04T08:00:13;102654.97;;;6.20;100.00
69630;BME280;56857;52.212;5.496;2023-03-04T08:02:43;102656.56;;;6.23;100.00
69630;BME280;56857;52.212;5.496;2023-03-04T08:05:15;102659.00;;;6.26;100.00
69630;BME280;56857;52.212;5.496;2023-03-04T08:07:42;102664.00;;;6.31;100.00
69630;BME280;56857;52.212;5.496;2023-03-04T08:10:08;102664.94;;;6.30;100.00
69630;BME280;56857;52.212;5.496;2023-03-04T08:12:34;102661.38;;;6.31;100.00
69630;BME280;56857;52.212;5.496;2023-03-04T08:15:06;102661.25;;;6.32;100.00
69630;BME280;56857;52.212;5.496;2023-03-04T08:17:35;102665.69;;;6.32;100.00
69630;BME280;56857;52.212;5.496;2023-03-04T08:20:08;102668.00;;;6.36;100.00
69630;BME280;56857;52.212;5.496;2023-03-04T08:22:35;102666.03;;;6.40;100.00
69630;BME280;56857;52.212;5.496;2023-03-04T08:25:02;102669.22;;;6.45;100.00
69630;BME280;56857;52.212;5.496;2023-03-04T08:27:33;102662.94;;;6.47;100.00
69630;BME280;56857;52.212;5.496;2023-03-04T08:30:07;102664.53;;;6.50;100.00
69630;BME280;56857;52.212;5.496;2023-03-04T08:32:32;102663.69;;;6.49;100.00
69630;BME280;56857;52.212;5.496;2023-03-04T08:34:59;102668.94;;;6.49;100.00
69630;BME280;56857;52.212;5.496;2023-03-04T08:37:32;102673.47;;;6.47;100.00
69630;BME280;56857;52.212;5.496;2023-03-04T08:40:00;102669.78;;;6.50;100.00
69630;BME280;56857;52.212;5.496;2023-03-04T08:42:27;102671.88;;;6.45;100.00
69630;BME280;56857;52.212;5.496;2023-03-04T08:44:54;102670.19;;;6.44;100.00
69630;BME280;56857;52.212;5.496;2023-03-04T08:47:19;102681.63;;;6.43;100.00
69630;BME280;56857;52.212;5.496;2023-03-04T08:49:46;102670.38;;;6.41;100.00
69630;BME280;56857;52.212;5.496;2023-03-04T08:52:12;102674.13;;;6.37;100.00
69630;BME280;56857;52.212;5.496;2023-03-04T08:54:42;102669.63;;;6.39;100.00
69630;BME280;56857;52.212;5.496;2023-03-04T08:57:13;102669.34;;;6.43;100.00
69630;BME280;56857;52.212;5.496;2023-03-04T08:59:46;102669.78;;;6.50;100.00
69630;BME280;56857;52.212;5.496;2023-03-04T09:02:19;102671.16;;;6.56;100.00
69630;BME280;56857;52.212;5.496;2023-03-04T09:04:45;102681.50;;;6.59;100.00
69630;BME280;56857;52.212;5.496;2023-03-04T09:07:17;102663.75;;;6.62;100.00
69630;BME280;56857;52.212;5.496;2023-03-04T09:09:43;102672.28;;;6.66;100.00
69630;BME280;56857;52.212;5.496;2023-03-04T09:12:09;102666.63;;;6.72;100.00
69630;BME280;56857;52.212;5.496;2023-03-04T09:14:34;102669.78;;;6.77;100.00
69630;BME280;56857;52.212;5.496;2023-03-04T09:17:04;102670.44;;;6.81;100.00
69630;BME280;56857;52.212;5.496;2023-03-04T09:19:30;102664.13;;;6.83;100.00
69630;BME280;56857;52.212;5.496;2023-03-04T09:21:57;102665.84;;;6.84;100.00
69630;BME280;56857;52.212;5.496;2023-03-04T09:24:25;102666.75;;;6.83;100.00
69630;BME280;56857;52.212;5.496;2023-03-04T09:26:52;102668.47;;;6.84;100.00
69630;BME280;56857;52.212;5.496;2023-03-04T09:29:20;102668.47;;;6.84;100.00
69630;BME280;56857;52.212;5.496;2023-03-04T09:31:46;102661.41;;;6.85;100.00
69630;BME280;56857;52.212;5.496;2023-03-04T09:34:19;102665.63;;;6.87;100.00
69630;BME280;56857;52.212;5.496;2023-03-04T09:36:50;102660.25;;;6.89;100.00
69630;BME280;56857;52.212;5.496;2023-03-04T09:39:17;102661.09;;;6.89;100.00
69630;BME280;56857;52.212;5.496;2023-03-04T09:41:57;102654.13;;;6.88;100.00
69630;BME280;56857;52.212;5.496;2023-03-04T09:44:23;102661.72;;;6.93;100.00
69630;BME280;56857;52.212;5.496;2023-03-04T09:47:00;102665.31;;;6.92;100.00
69630;BME280;56857;52.212;5.496;2023-03-04T09:49:28;102659.00;;;6.94;100.00
69630;BME280;56857;52.212;5.496;2023-03-04T09:52:37;102660.81;;;6.94;100.00
69630;BME280;56857;52.212;5.496;2023-03-04T09:55:29;102661.13;;;7.02;100.00
69630;BME280;56857;52.212;5.496;2023-03-04T09:58:02;102655.56;;;7.07;100.00
69630;BME280;56857;52.212;5.496;2023-03-04T10:01:15;102644.06;;;7.08;100.00
69630;BME280;56857;52.212;5.496;2023-03-04T10:03:53;102650.81;;;7.12;100.00
69630;BME280;56857;52.212;5.496;2023-03-04T10:06:34;102648.56;;;7.06;100.00
69630;BME280;56857;52.212;5.496;2023-03-04T10:09:10;102645.63;;;6.97;100.00
69630;BME280;56857;52.212;5.496;2023-03-04T10:12:14;102648.47;;;6.94;100.00
69630;BME280;56857;52.212;5.496;2023-03-04T10:17:23;102644.78;;;6.97;100.00
69630;BME280;56857;52.212;5.496;2023-03-04T10:19:59;102643.63;;;7.01;100.00
69630;BME280;56857;52.212;5.496;2023-03-04T10:25:31;102639.94;;;7.04;100.00
69630;BME280;56857;52.212;5.496;2023-03-04T10:28:19;102641.53;;;7.06;100.00
69630;BME280;56857;52.212;5.496;2023-03-04T10:33:41;102635.75;;;7.27;100.00
69630;BME280;56857;52.212;5.496;2023-03-04T10:39:18;102633.03;;;7.54;100.00
69630;BME280;56857;52.212;5.496;2023-03-04T10:41:58;102632.41;;;7.63;100.00
69630;BME280;56857;52.212;5.496;2023-03-04T10:44:24;102628.03;;;7.75;100.00
69630;BME280;56857;52.212;5.496;2023-03-04T10:46:52;102624.69;;;7.85;100.00
69630;BME280;56857;52.212;5.496;2023-03-04T10:49:19;102625.19;;;7.90;100.00
69630;BME280;56857;52.212;5.496;2023-03-04T10:54:26;102619.84;;;8.16;100.00
69630;BME280;56857;52.212;5.496;2023-03-04T11:01:59;102633.59;;;8.08;100.00
69630;BME280;56857;52.212;5.496;2023-03-04T11:04:27;102637.22;;;7.95;100.00
69630;BME280;56857;52.212;5.496;2023-03-04T11:07:02;102640.72;;;7.82;100.00
69630;BME280;56857;52.212;5.496;2023-03-04T11:09:33;102632.28;;;7.64;100.00
69630;BME280;56857;52.212;5.496;2023-03-04T11:12:02;102634.19;;;7.50;100.00
69630;BME280;56857;52.212;5.496;2023-03-04T11:15:02;102635.53;;;7.30;100.00
69630;BME280;56857;52.212;5.496;2023-03-04T11:17:39;102633.44;;;7.22;100.00
69630;BME280;56857;52.212;5.496;2023-03-04T11:20:27;102627.63;;;7.17;100.00
69630;BME280;56857;52.212;5.496;2023-03-04T11:22:54;102629.28;;;7.18;100.00
69630;BME280;56857;52.212;5.496;2023-03-04T11:25:34;102627.41;;;7.20;100.00
69630;BME280;56857;52.212;5.496;2023-03-04T11:28:15;102622.88;;;7.22;100.00
69630;BME280;56857;52.212;5.496;2023-03-04T11:30:51;102622.34;;;7.30;100.00
69630;BME280;56857;52.212;5.496;2023-03-04T11:33:32;102614.44;;;7.30;100.00
69630;BME280;56857;52.212;5.496;2023-03-04T11:38:50;102605.69;;;7.42;100.00
69630;BME280;56857;52.212;5.496;2023-03-04T11:41:28;102607.16;;;7.59;100.00
69630;BME280;56857;52.212;5.496;2023-03-04T11:43:57;102603.22;;;7.77;100.00
69630;BME280;56857;52.212;5.496;2023-03-04T11:49:13;102594.94;;;8.31;100.00
69630;BME280;56857;52.212;5.496;2023-03-04T11:55:11;102604.00;;;8.53;100.00
69630;BME280;56857;52.212;5.496;2023-03-04T12:00:40;102596.50;;;8.47;100.00
69630;BME280;56857;52.212;5.496;2023-03-04T12:11:04;102585.41;;;8.54;100.00
69630;BME280;56857;52.212;5.496;2023-03-04T12:16:36;102587.25;;;8.28;100.00
69630;BME280;56857;52.212;5.496;2023-03-04T12:27:30;102569.59;;;8.05;100.00
69630;BME280;56857;52.212;5.496;2023-03-04T12:38:35;102561.00;;;8.14;100.00
69630;BME280;56857;52.212;5.496;2023-03-04T12:44:17;102557.94;;;8.44;100.00
69630;BME280;56857;52.212;5.496;2023-03-04T12:52:15;102554.09;;;8.24;100.00
69630;BME280;56857;52.212;5.496;2023-03-04T12:54:50;102563.53;;;8.16;100.00
69630;BME280;56857;52.212;5.496;2023-03-04T12:57:26;102566.72;;;8.08;100.00
69630;BME280;56857;52.212;5.496;2023-03-04T13:00:26;102557.78;;;7.98;100.00
69630;BME280;56857;52.212;5.496;2023-03-04T13:05:29;102554.25;;;7.73;100.00
69630;BME280;56857;52.212;5.496;2023-03-04T13:08:24;102555.75;;;7.64;100.00
69630;BME280;56857;52.212;5.496;2023-03-04T13:10:51;102551.63;;;7.60;100.00
69630;BME280;56857;52.212;5.496;2023-03-04T13:13:40;102549.22;;;7.57;100.00
69630;BME280;56857;52.212;5.496;2023-03-04T13:16:29;102562.94;;;7.50;100.00
69630;BME280;56857;52.212;5.496;2023-03-04T13:18:55;102555.03;;;7.37;100.00
69630;BME280;56857;52.212;5.496;2023-03-04T13:21:31;102550.81;;;7.22;100.00
69630;BME280;56857;52.212;5.496;2023-03-04T13:24:45;102537.31;;;7.13;100.00
69630;BME280;56857;52.212;5.496;2023-03-04T13:38:33;102528.97;;;7.45;100.00
69630;BME280;56857;52.212;5.496;2023-03-04T13:41:21;102525.06;;;7.51;100.00
69630;BME280;56857;52.212;5.496;2023-03-04T13:43:55;102528.09;;;7.57;100.00
69630;BME280;56857;52.212;5.496;2023-03-04T13:49:04;102519.88;;;7.49;100.00
69630;BME280;56857;52.212;5.496;2023-03-04T13:51:36;102522.31;;;7.39;100.00
69630;BME280;56857;52.212;5.496;2023-03-04T13:56:48;102519.88;;;7.36;100.00
69630;BME280;56857;52.212;5.496;2023-03-04T13:59:53;102511.00;;;7.37;100.00
69630;BME280;56857;52.212;5.496;2023-03-04T14:02:21;102520.50;;;7.40;100.00
69630;BME280;56857;52.212;5.496;2023-03-04T14:07:32;102508.28;;;7.39;100.00
69630;BME280;56857;52.212;5.496;2023-03-04T14:12:40;102508.38;;;7.25;100.00
69630;BME280;56857;52.212;5.496;2023-03-04T14:17:43;102504.63;;;7.16;100.00
69630;BME280;56857;52.212;5.496;2023-03-04T14:22:52;102506.72;;;7.11;100.00
69630;BME280;56857;52.212;5.496;2023-03-04T14:25:43;102491.00;;;7.09;100.00
69630;BME280;56857;52.212;5.496;2023-03-04T14:28:45;102497.63;;;7.15;100.00
69630;BME280;56857;52.212;5.496;2023-03-04T14:31:15;102493.09;;;7.17;100.00
69630;BME280;56857;52.212;5.496;2023-03-04T14:33:44;102488.38;;;7.22;100.00
69630;BME280;56857;52.212;5.496;2023-03-04T14:36:15;102482.75;;;7.27;100.00
69630;BME280;56857;52.212;5.496;2023-03-04T14:38:41;102492.97;;;7.31;100.00